Harpers Ferry, West Virginia
Current Conditions -  °F | °C
As of 1:53 AM on Thursday 23 Oct 2014 (Local Time) from KMRB Reporting Station
Few Clouds Few Clouds  
Wind Chill: 50°   Ceiling: Unl
Heat Index: 50°   Visibility: 10mi
Dew Point: 39°   Wind: 9mph
Humidity: 66%   Direction: 320°NW
Pressure: 29.98"   Gusts: 21mph
Location:  39.33°N, 77.74°W
Report Text: KMRB 230553Z AUTO 32008G18KT 10SM FEW031 10/04 A2998 RMK AO2 SLP151 T01000039 10117 20100 58014 TSNO
Loading
Personal Weather Stations






























Interactive Weather Map
Tropical Storm Tracking
New forecast layout! Learn more

10-Day Weather Forecast

Advertisements
Track Severe Weather on mobile